Time;durP1;ratioP1;P1;durP2;ratioP2;P2;SDS_P1;SDS_P2;PMS_P1;PMS_P2;Temp;Humidity;BMP_temperature;BMP_pressure;BME280_temperature;BME280_humidity;BME280_pressure;Samples;Min_cycle;Max_cycle;Signal;HPM_P1;HPM_P2
2021/06/28 00:02:12;;;;;;;4.22;3.17;;;;;;;;;;5052072;28;20074;-75
2021/06/28 00:04:57;;;;;;;3.90;2.85;;;;;;;;;;5067075;28;20038;-75
2021/06/28 00:07:44;;;;;;;5.70;3.55;;;;;;;;;;5070722;28;20043;-75
2021/06/28 00:10:30;;;;;;;5.57;3.22;;;;;;;;;;5077294;28;20040;-75
2021/06/28 00:13:14;;;;;;;5.13;3.08;;;;;;;;;;5050209;28;20067;-75
2021/06/28 00:15:59;;;;;;;5.82;3.20;;;;;;;;;;5065452;28;20043;-75
2021/06/28 00:18:43;;;;;;;4.07;3.30;;;;;;;;;;5062243;28;20127;-75
2021/06/28 00:21:29;;;;;;;5.50;3.25;;;;;;;;;;5065974;28;20062;-76
2021/06/28 00:24:13;;;;;;;4.22;3.08;;;;;;;;;;5067028;28;20063;-75
2021/06/28 00:26:58;;;;;;;4.45;3.20;;;;;;;;;;5065496;28;20081;-75
2021/06/28 00:29:42;;;;;;;4.18;3.20;;;;;;;;;;5056772;28;20039;-76
2021/06/28 00:32:27;;;;;;;4.95;3.40;;;;;;;;;;5052812;28;20803;-77
2021/06/28 00:35:11;;;;;;;5.20;3.53;;;;;;;;;;5054030;28;20034;-77
2021/06/28 00:37:56;;;;;;;5.25;3.33;;;;;;;;;;5052757;28;20470;-78
2021/06/28 00:40:41;;;;;;;5.93;3.63;;;;;;;;;;5051111;28;20039;-77
2021/06/28 00:43:26;;;;;;;5.88;3.28;;;;;;;;;;5049188;28;20509;-76
2021/06/28 00:46:11;;;;;;;4.88;3.10;;;;;;;;;;5066782;28;20036;-77
2021/06/28 00:48:56;;;;;;;7.28;3.50;;;;;;;;;;5073207;28;20051;-76
2021/06/28 00:51:40;;;;;;;5.68;3.70;;;;;;;;;;5081099;28;20047;-75
2021/06/28 00:54:25;;;;;;;6.10;3.90;;;;;;;;;;5084480;28;20310;-75
2021/06/28 00:57:10;;;;;;;5.50;3.55;;;;;;;;;;5060097;28;20070;-75
2021/06/28 00:59:55;;;;;;;6.22;3.85;;;;;;;;;;5075522;28;20475;-76
2021/06/28 01:02:39;;;;;;;4.78;3.47;;;;;;;;;;5063654;28;20141;-75
2021/06/28 01:05:25;;;;;;;5.00;3.60;;;;;;;;;;5070645;28;20039;-75
2021/06/28 01:08:10;;;;;;;4.93;3.47;;;;;;;;;;5068386;28;20086;-75
2021/06/28 01:10:54;;;;;;;6.38;3.97;;;;;;;;;;5035181;28;20051;-75
2021/06/28 01:13:40;;;;;;;4.68;3.65;;;;;;;;;;5064006;28;20056;-75
2021/06/28 01:16:25;;;;;;;6.03;3.58;;;;;;;;;;5073190;28;20327;-75
2021/06/28 01:19:10;;;;;;;5.28;3.92;;;;;;;;;;5051494;28;20090;-75
2021/06/28 01:21:55;;;;;;;5.60;3.95;;;;;;;;;;5064055;28;20549;-75
2021/06/28 01:24:40;;;;;;;6.07;4.03;;;;;;;;;;5048877;28;20046;-74
2021/06/28 01:27:25;;;;;;;4.32;3.65;;;;;;;;;;5048734;28;20082;-75
2021/06/28 01:30:11;;;;;;;4.00;3.55;;;;;;;;;;5049469;28;20054;-75
2021/06/28 01:32:56;;;;;;;5.47;3.92;;;;;;;;;;5063614;28;20063;-76
2021/06/28 01:35:41;;;;;;;4.72;3.58;;;;;;;;;;5049917;28;20401;-75
2021/06/28 01:38:26;;;;;;;5.28;3.97;;;;;;;;;;5066469;28;20044;-75
2021/06/28 01:41:10;;;;;;;5.72;3.72;;;;;;;;;;5069290;28;20039;-75
2021/06/28 01:43:55;;;;;;;5.55;3.78;;;;;;;;;;5063852;28;20047;-75
2021/06/28 01:46:39;;;;;;;5.07;3.67;;;;;;;;;;5049142;28;20047;-75
2021/06/28 01:49:24;;;;;;;4.03;3.35;;;;;;;;;;5049625;28;20040;-74
2021/06/28 01:52:09;;;;;;;4.85;3.70;;;;;;;;;;5069454;28;20043;-74
2021/06/28 01:54:54;;;;;;;5.00;3.50;;;;;;;;;;5053534;28;20117;-75
2021/06/28 01:57:42;;;;;;;3.83;3.38;;;;;;;;;;5040016;28;20040;-74
2021/06/28 02:00:38;;;;;;;4.70;3.42;;;;;;;;;;5051621;28;20112;-74
2021/06/28 02:03:24;;;;;;;4.85;3.53;;;;;;;;;;5066473;28;20089;-75
2021/06/28 02:06:08;;;;;;;4.47;3.55;;;;;;;;;;5064619;28;20124;-74
2021/06/28 02:08:53;;;;;;;4.82;3.33;;;;;;;;;;5070098;28;20048;-74
2021/06/28 02:11:37;;;;;;;5.28;3.60;;;;;;;;;;5065940;28;20491;-74
2021/06/28 02:14:22;;;;;;;6.25;4.00;;;;;;;;;;5079491;28;20063;-74
2021/06/28 02:17:06;;;;;;;4.20;3.50;;;;;;;;;;5081355;28;20128;-74
2021/06/28 02:19:51;;;;;;;5.03;3.65;;;;;;;;;;5064972;28;20498;-74
2021/06/28 02:22:37;;;;;;;5.38;3.90;;;;;;;;;;5053051;28;20082;-75
2021/06/28 02:25:22;;;;;;;4.32;3.35;;;;;;;;;;5078921;28;20113;-75
2021/06/28 02:28:07;;;;;;;4.72;3.33;;;;;;;;;;5062611;28;20050;-75
2021/06/28 02:30:54;;;;;;;3.80;3.35;;;;;;;;;;5049530;28;20491;-75
2021/06/28 02:33:38;;;;;;;5.22;3.15;;;;;;;;;;5069095;28;20139;-75
2021/06/28 02:36:23;;;;;;;4.15;3.45;;;;;;;;;;5068844;28;20395;-76
2021/06/28 02:39:08;;;;;;;5.05;3.58;;;;;;;;;;5049464;28;20046;-75
2021/06/28 02:41:53;;;;;;;5.43;3.50;;;;;;;;;;5065315;28;20562;-75
2021/06/28 02:44:38;;;;;;;5.00;3.90;;;;;;;;;;5082422;28;20413;-75
2021/06/28 02:47:22;;;;;;;4.25;3.40;;;;;;;;;;5080286;28;20309;-75
2021/06/28 02:50:08;;;;;;;4.22;3.40;;;;;;;;;;5068413;28;20043;-75
2021/06/28 02:52:52;;;;;;;4.28;3.38;;;;;;;;;;5062607;28;20528;-75
2021/06/28 02:55:38;;;;;;;4.80;3.40;;;;;;;;;;5071159;28;20051;-75
2021/06/28 02:58:23;;;;;;;4.25;3.35;;;;;;;;;;5065905;28;20035;-75
2021/06/28 03:01:07;;;;;;;4.47;3.30;;;;;;;;;;5069180;28;20814;-74
2021/06/28 03:03:52;;;;;;;4.78;3.70;;;;;;;;;;5072502;28;20035;-75
2021/06/28 03:06:36;;;;;;;4.72;3.40;;;;;;;;;;5066994;28;20051;-75
2021/06/28 03:09:20;;;;;;;4.95;3.53;;;;;;;;;;5061618;28;20035;-75
2021/06/28 03:12:05;;;;;;;4.95;3.58;;;;;;;;;;5072860;28;20073;-75
2021/06/28 03:14:50;;;;;;;4.63;3.45;;;;;;;;;;5070682;28;20109;-75
2021/06/28 03:17:35;;;;;;;4.63;3.65;;;;;;;;;;5074519;28;20097;-75
2021/06/28 03:20:19;;;;;;;5.15;3.50;;;;;;;;;;5069764;28;20509;-75
2021/06/28 03:23:05;;;;;;;3.83;3.40;;;;;;;;;;5079380;28;20460;-75
2021/06/28 03:25:49;;;;;;;4.60;3.33;;;;;;;;;;5070075;28;20046;-75
2021/06/28 03:28:34;;;;;;;4.47;3.25;;;;;;;;;;5077663;28;20767;-75
2021/06/28 03:31:19;;;;;;;4.35;3.70;;;;;;;;;;5070741;28;20036;-75
2021/06/28 03:34:03;;;;;;;5.88;3.40;;;;;;;;;;5073056;28;20067;-75
2021/06/28 03:36:48;;;;;;;4.60;3.30;;;;;;;;;;5069599;28;20035;-75
2021/06/28 03:39:32;;;;;;;5.38;3.53;;;;;;;;;;5068327;28;20043;-75
2021/06/28 03:42:17;;;;;;;4.78;3.60;;;;;;;;;;5057179;28;20403;-75
2021/06/28 03:45:03;;;;;;;4.80;3.55;;;;;;;;;;5075028;28;20512;-75
2021/06/28 03:47:48;;;;;;;4.15;3.42;;;;;;;;;;5067010;28;20415;-75
2021/06/28 03:50:32;;;;;;;4.95;3.20;;;;;;;;;;5071734;28;20066;-75
2021/06/28 03:53:17;;;;;;;5.13;3.55;;;;;;;;;;5074994;28;20110;-74
2021/06/28 03:56:06;;;;;;;4.53;3.30;;;;;;;;;;5051657;28;20089;-75
2021/06/28 03:58:51;;;;;;;3.90;3.40;;;;;;;;;;5063747;28;20536;-75
2021/06/28 04:01:36;;;;;;;5.65;3.28;;;;;;;;;;5075857;28;20521;-75
2021/06/28 04:04:20;;;;;;;4.78;3.50;;;;;;;;;;5068289;28;20093;-75
2021/06/28 04:07:05;;;;;;;5.10;3.33;;;;;;;;;;5082810;28;20142;-75
2021/06/28 04:09:49;;;;;;;4.90;3.40;;;;;;;;;;5070721;28;20117;-75
2021/06/28 04:12:34;;;;;;;3.75;3.10;;;;;;;;;;5067737;28;20048;-75
2021/06/28 04:15:19;;;;;;;4.40;3.35;;;;;;;;;;5072577;28;20035;-75
2021/06/28 04:18:03;;;;;;;4.90;3.67;;;;;;;;;;5065698;28;20117;-74
2021/06/28 04:20:48;;;;;;;4.25;3.47;;;;;;;;;;5066448;28;20078;-75
2021/06/28 04:23:33;;;;;;;4.20;3.42;;;;;;;;;;5070185;28;20109;-75
2021/06/28 04:26:17;;;;;;;4.07;3.40;;;;;;;;;;5054898;28;20043;-75
2021/06/28 04:29:02;;;;;;;4.25;3.65;;;;;;;;;;5073250;28;20063;-75
2021/06/28 04:31:46;;;;;;;4.43;3.30;;;;;;;;;;5073111;28;20054;-75
2021/06/28 04:34:31;;;;;;;5.10;3.70;;;;;;;;;;5054265;28;20094;-75
2021/06/28 04:37:15;;;;;;;4.95;3.53;;;;;;;;;;5066579;28;20039;-75
2021/06/28 04:40:00;;;;;;;4.75;3.33;;;;;;;;;;5051736;28;20490;-74
2021/06/28 04:42:44;;;;;;;6.07;3.42;;;;;;;;;;5074880;28;20092;-75
2021/06/28 04:45:29;;;;;;;4.32;3.50;;;;;;;;;;5071730;28;20122;-75
2021/06/28 04:48:15;;;;;;;5.68;4.10;;;;;;;;;;5072928;28;20039;-75
2021/06/28 04:51:00;;;;;;;4.28;3.28;;;;;;;;;;5048657;28;20027;-75
2021/06/28 04:53:44;;;;;;;4.50;3.28;;;;;;;;;;5077172;28;20567;-76
2021/06/28 04:56:29;;;;;;;6.38;3.33;;;;;;;;;;5063753;28;20507;-76
2021/06/28 04:59:16;;;;;;;4.18;3.25;;;;;;;;;;5063436;28;20051;-75
2021/06/28 05:02:01;;;;;;;5.35;3.40;;;;;;;;;;5063480;28;20181;-75
2021/06/28 05:04:47;;;;;;;4.80;3.35;;;;;;;;;;5061837;28;20809;-75
2021/06/28 05:07:32;;;;;;;5.13;3.67;;;;;;;;;;5048916;28;20613;-75
2021/06/28 05:10:16;;;;;;;4.55;3.30;;;;;;;;;;5046899;28;20846;-75
2021/06/28 05:13:01;;;;;;;4.05;3.17;;;;;;;;;;5062771;28;20051;-75
2021/06/28 05:15:45;;;;;;;4.63;3.58;;;;;;;;;;5063164;28;20253;-74
2021/06/28 05:18:30;;;;;;;4.40;3.35;;;;;;;;;;5048810;28;20093;-75
2021/06/28 05:21:14;;;;;;;5.88;3.45;;;;;;;;;;5061126;28;20036;-76
2021/06/28 05:23:59;;;;;;;3.75;3.15;;;;;;;;;;5063559;28;20135;-76
2021/06/28 05:26:43;;;;;;;3.83;3.28;;;;;;;;;;5062797;28;20035;-75
2021/06/28 05:29:28;;;;;;;5.20;3.33;;;;;;;;;;5055347;28;20170;-75
2021/06/28 05:32:12;;;;;;;4.32;3.08;;;;;;;;;;5062226;28;20035;-75
2021/06/28 05:34:57;;;;;;;4.75;3.67;;;;;;;;;;5048291;28;20051;-75
2021/06/28 05:37:42;;;;;;;4.07;3.05;;;;;;;;;;5062908;28;20034;-75
2021/06/28 05:40:27;;;;;;;4.78;3.67;;;;;;;;;;5063298;28;20090;-74
2021/06/28 05:43:11;;;;;;;4.63;3.28;;;;;;;;;;5062755;28;20097;-75
2021/06/28 05:45:56;;;;;;;3.97;3.20;;;;;;;;;;5028664;28;20538;-75
2021/06/28 05:48:40;;;;;;;4.25;3.25;;;;;;;;;;5061698;28;20485;-75
2021/06/28 05:51:25;;;;;;;4.20;3.40;;;;;;;;;;5042712;28;20040;-75
2021/06/28 05:54:09;;;;;;;4.38;3.30;;;;;;;;;;5029876;28;20153;-75
2021/06/28 05:56:54;;;;;;;5.22;3.40;;;;;;;;;;5047536;28;20039;-75
2021/06/28 05:59:39;;;;;;;4.88;3.25;;;;;;;;;;5062394;28;20043;-75
2021/06/28 06:02:23;;;;;;;4.30;3.25;;;;;;;;;;5061822;28;20070;-75
2021/06/28 06:05:08;;;;;;;3.92;3.13;;;;;;;;;;5062302;28;20079;-75
2021/06/28 06:07:53;;;;;;;3.95;3.33;;;;;;;;;;5062492;28;20082;-75
2021/06/28 06:10:38;;;;;;;4.43;3.20;;;;;;;;;;5043905;28;20040;-75
2021/06/28 06:13:23;;;;;;;3.95;2.97;;;;;;;;;;5048042;28;20056;-75
2021/06/28 06:16:07;;;;;;;4.50;3.20;;;;;;;;;;5047989;28;20074;-75
2021/06/28 06:18:55;;;;;;;4.72;3.50;;;;;;;;;;5061997;28;20142;-75
2021/06/28 06:21:40;;;;;;;4.22;3.30;;;;;;;;;;5048498;28;20138;-75
2021/06/28 06:24:28;;;;;;;7.68;3.30;;;;;;;;;;5047983;28;20086;-77
2021/06/28 06:27:13;;;;;;;5.25;3.40;;;;;;;;;;5062649;28;20070;-75
2021/06/28 06:29:58;;;;;;;4.45;3.30;;;;;;;;;;5061802;28;20788;-75
2021/06/28 06:32:42;;;;;;;4.05;3.22;;;;;;;;;;5048014;28;20809;-75
2021/06/28 06:35:27;;;;;;;5.28;3.20;;;;;;;;;;5062191;28;20048;-76
2021/06/28 06:38:12;;;;;;;3.88;2.80;;;;;;;;;;5056659;28;20035;-74
2021/06/28 06:40:56;;;;;;;4.82;2.92;;;;;;;;;;5064701;28;20185;-75
2021/06/28 06:43:41;;;;;;;4.53;2.88;;;;;;;;;;5073102;28;20129;-77
2021/06/28 06:46:25;;;;;;;3.63;2.95;;;;;;;;;;5061694;28;20040;-75
2021/06/28 06:49:10;;;;;;;5.32;3.00;;;;;;;;;;5067327;28;20031;-75
2021/06/28 06:51:54;;;;;;;4.18;3.22;;;;;;;;;;5069233;28;20039;-75
2021/06/28 06:54:40;;;;;;;3.53;2.95;;;;;;;;;;5060421;28;20056;-76
2021/06/28 06:57:25;;;;;;;4.10;3.03;;;;;;;;;;5048626;28;20646;-75
2021/06/28 07:00:12;;;;;;;3.78;3.10;;;;;;;;;;5057853;28;20036;-75
2021/06/28 07:02:57;;;;;;;4.70;2.95;;;;;;;;;;5078572;28;20117;-76
2021/06/28 07:05:41;;;;;;;4.57;2.80;;;;;;;;;;5068214;28;20483;-76
2021/06/28 07:08:26;;;;;;;4.35;3.00;;;;;;;;;;5064233;28;20047;-76
2021/06/28 07:11:11;;;;;;;4.82;3.40;;;;;;;;;;5050627;28;20031;-75
2021/06/28 07:13:57;;;;;;;4.05;2.70;;;;;;;;;;5064095;28;20137;-75
2021/06/28 07:16:42;;;;;;;3.38;2.88;;;;;;;;;;5064030;28;20078;-75
2021/06/28 07:19:26;;;;;;;3.75;2.85;;;;;;;;;;5042445;28;20465;-74
2021/06/28 07:22:11;;;;;;;5.00;2.92;;;;;;;;;;5066145;28;20091;-75
2021/06/28 07:24:55;;;;;;;4.55;3.03;;;;;;;;;;5065629;28;20039;-74
2021/06/28 07:27:41;;;;;;;3.35;2.80;;;;;;;;;;5033626;28;20076;-75
2021/06/28 07:30:25;;;;;;;4.30;2.97;;;;;;;;;;5061029;28;20047;-74
2021/06/28 07:33:10;;;;;;;3.47;2.75;;;;;;;;;;5078613;28;20537;-75
2021/06/28 07:35:55;;;;;;;3.88;3.00;;;;;;;;;;5064604;28;20043;-75
2021/06/28 07:38:39;;;;;;;3.63;2.40;;;;;;;;;;5044820;28;20130;-75
2021/06/28 07:41:24;;;;;;;3.50;2.80;;;;;;;;;;5050864;28;20520;-74
2021/06/28 07:44:09;;;;;;;4.32;3.00;;;;;;;;;;5067911;28;20090;-75
2021/06/28 07:46:53;;;;;;;4.10;2.75;;;;;;;;;;5062859;28;20038;-74
2021/06/28 07:49:38;;;;;;;3.78;2.72;;;;;;;;;;5065544;28;20075;-74
2021/06/28 07:52:22;;;;;;;3.80;2.53;;;;;;;;;;5068144;28;20473;-75
2021/06/28 07:55:07;;;;;;;3.75;2.80;;;;;;;;;;5077475;28;20117;-75
2021/06/28 07:57:52;;;;;;;4.30;2.58;;;;;;;;;;5058311;28;20174;-75
2021/06/28 08:00:37;;;;;;;4.35;2.53;;;;;;;;;;5050454;28;20051;-74
2021/06/28 08:03:21;;;;;;;4.53;2.70;;;;;;;;;;5051702;28;20120;-75
2021/06/28 08:06:06;;;;;;;3.75;2.60;;;;;;;;;;5063831;28;20043;-75
2021/06/28 08:08:51;;;;;;;3.55;2.72;;;;;;;;;;5082597;28;20030;-75
2021/06/28 08:11:35;;;;;;;3.75;2.83;;;;;;;;;;5064954;28;20047;-76
2021/06/28 08:14:20;;;;;;;4.43;2.70;;;;;;;;;;5074085;28;20580;-76
2021/06/28 08:17:05;;;;;;;3.53;2.55;;;;;;;;;;5075155;28;20082;-75
2021/06/28 08:19:49;;;;;;;3.95;2.75;;;;;;;;;;5064412;28;20079;-77
2021/06/28 08:22:35;;;;;;;3.58;2.40;;;;;;;;;;5064064;28;20502;-76
2021/06/28 08:25:23;;;;;;;3.50;2.40;;;;;;;;;;5083864;28;20062;-79
2021/06/28 08:28:10;;;;;;;3.58;2.40;;;;;;;;;;5065768;28;20043;-79
2021/06/28 08:30:54;;;;;;;3.83;2.60;;;;;;;;;;5064594;28;20036;-75
2021/06/28 08:33:39;;;;;;;3.30;2.60;;;;;;;;;;5049686;28;20564;-76
2021/06/28 08:36:24;;;;;;;3.53;2.35;;;;;;;;;;5064822;28;20135;-75
2021/06/28 08:39:08;;;;;;;2.90;2.30;;;;;;;;;;5063740;28;20047;-76
2021/06/28 08:41:54;;;;;;;4.22;2.60;;;;;;;;;;5063571;28;20048;-75
2021/06/28 08:44:38;;;;;;;3.20;2.22;;;;;;;;;;5060728;28;20042;-75
2021/06/28 08:47:23;;;;;;;3.50;2.60;;;;;;;;;;5061044;28;20170;-77
2021/06/28 08:50:09;;;;;;;2.83;2.33;;;;;;;;;;5067278;28;20070;-75
2021/06/28 08:52:54;;;;;;;2.92;2.25;;;;;;;;;;5065105;28;20756;-75
2021/06/28 08:55:40;;;;;;;3.13;2.75;;;;;;;;;;5063030;28;20101;-76
2021/06/28 08:58:26;;;;;;;2.80;2.50;;;;;;;;;;5062798;28;20124;-76
2021/06/28 09:01:12;;;;;;;3.47;2.65;;;;;;;;;;5066626;28;20094;-76
2021/06/28 09:03:56;;;;;;;3.00;2.60;;;;;;;;;;5071707;28;20043;-77
2021/06/28 09:06:42;;;;;;;4.97;2.55;;;;;;;;;;5048865;28;20027;-76
2021/06/28 09:09:34;;;;;;;4.35;2.97;;;;;;;;;;5047890;28;20135;-76
2021/06/28 09:12:19;;;;;;;4.40;2.47;;;;;;;;;;5061099;28;20431;-75
2021/06/28 09:15:04;;;;;;;2.95;2.38;;;;;;;;;;5037896;28;20135;-76
2021/06/28 09:17:49;;;;;;;2.83;2.17;;;;;;;;;;5054764;28;20549;-77
2021/06/28 09:20:33;;;;;;;2.58;2.08;;;;;;;;;;5042695;28;20217;-76
2021/06/28 09:23:18;;;;;;;3.20;2.30;;;;;;;;;;5061149;28;20073;-76
2021/06/28 09:26:03;;;;;;;3.50;2.53;;;;;;;;;;5064035;28;20047;-75
2021/06/28 09:28:49;;;;;;;3.55;2.58;;;;;;;;;;5052233;28;20612;-75
2021/06/28 09:31:37;;;;;;;3.30;2.40;;;;;;;;;;5066928;28;20039;-76
2021/06/28 09:34:23;;;;;;;3.22;2.30;;;;;;;;;;5061494;28;20112;-76
2021/06/28 09:37:15;;;;;;;3.05;2.35;;;;;;;;;;5081194;28;20130;-76
2021/06/28 09:40:00;;;;;;;3.60;2.35;;;;;;;;;;5047139;28;20047;-76
2021/06/28 09:42:44;;;;;;;3.90;2.67;;;;;;;;;;5042219;28;20489;-76
2021/06/28 09:45:29;;;;;;;2.90;2.28;;;;;;;;;;5055524;28;20101;-77
2021/06/28 09:48:30;;;;;;;3.70;2.33;;;;;;;;;;5062602;28;20058;-76
2021/06/28 09:51:28;;;;;;;3.17;2.20;;;;;;;;;;5043581;28;20641;-76
2021/06/28 09:54:17;;;;;;;3.33;2.30;;;;;;;;;;5042627;28;20135;-76
2021/06/28 09:57:02;;;;;;;2.95;2.30;;;;;;;;;;5060544;28;20094;-76
2021/06/28 09:59:47;;;;;;;2.97;2.13;;;;;;;;;;5063461;28;20047;-76
2021/06/28 10:02:37;;;;;;;4.00;2.35;;;;;;;;;;5059315;28;20059;-77
2021/06/28 10:05:25;;;;;;;3.42;2.25;;;;;;;;;;5060599;28;20604;-77
2021/06/28 10:08:15;;;;;;;3.40;2.50;;;;;;;;;;5050997;28;20661;-76
2021/06/28 10:11:30;;;;;;;3.37;2.43;;;;;;;;;;5061521;28;20090;-75
2021/06/28 10:14:14;;;;;;;2.60;2.25;;;;;;;;;;5051544;28;20060;-74
2021/06/28 10:16:59;;;;;;;4.53;2.22;;;;;;;;;;5057786;28;20102;-74
2021/06/28 10:19:44;;;;;;;3.05;2.30;;;;;;;;;;5063874;28;20035;-76
2021/06/28 10:22:28;;;;;;;3.15;2.15;;;;;;;;;;5059908;28;20071;-75
2021/06/28 10:25:14;;;;;;;3.03;2.20;;;;;;;;;;5064649;28;20183;-76
2021/06/28 10:27:59;;;;;;;3.92;2.50;;;;;;;;;;5060488;28;20559;-76
2021/06/28 10:30:43;;;;;;;3.20;2.33;;;;;;;;;;5053928;28;20757;-76
2021/06/28 10:33:28;;;;;;;3.08;2.38;;;;;;;;;;5060494;28;20514;-75
2021/06/28 10:36:13;;;;;;;3.20;2.53;;;;;;;;;;5040888;28;20044;-76
2021/06/28 10:38:58;;;;;;;4.28;2.45;;;;;;;;;;5054892;28;20066;-76
2021/06/28 10:41:46;;;;;;;3.33;2.38;;;;;;;;;;5055539;28;20047;-75
2021/06/28 10:44:47;;;;;;;3.72;2.42;;;;;;;;;;5050196;28;20068;-75
2021/06/28 10:47:32;;;;;;;2.83;2.17;;;;;;;;;;5054019;28;20094;-76
2021/06/28 10:50:16;;;;;;;4.35;2.40;;;;;;;;;;5051829;28;20049;-76
2021/06/28 10:53:01;;;;;;;3.53;2.00;;;;;;;;;;5059592;28;20114;-76
2021/06/28 10:55:45;;;;;;;3.80;2.30;;;;;;;;;;5055415;28;20036;-76
2021/06/28 10:58:31;;;;;;;3.45;2.40;;;;;;;;;;5054704;28;20536;-77
2021/06/28 11:01:17;;;;;;;4.65;2.60;;;;;;;;;;5042661;28;20039;-77
2021/06/28 11:04:11;;;;;;;5.22;2.60;;;;;;;;;;5062547;28;20043;-75
2021/06/28 11:06:59;;;;;;;3.78;2.30;;;;;;;;;;5045794;28;20099;-76
2021/06/28 11:09:48;;;;;;;5.80;2.85;;;;;;;;;;5060125;28;20626;-76
2021/06/28 11:12:33;;;;;;;3.97;2.40;;;;;;;;;;5063518;28;20059;-76
2021/06/28 11:15:23;;;;;;;3.60;2.67;;;;;;;;;;5071214;28;20046;-77
2021/06/28 11:18:07;;;;;;;4.75;2.42;;;;;;;;;;5085409;28;20043;-78
2021/06/28 11:20:55;;;;;;;3.10;2.03;;;;;;;;;;5048370;28;20063;-76
2021/06/28 11:23:51;;;;;;;4.50;2.60;;;;;;;;;;5044595;28;20044;-76
2021/06/28 11:26:36;;;;;;;3.38;2.40;;;;;;;;;;5045171;28;20047;-76
2021/06/28 11:29:51;;;;;;;3.28;2.40;;;;;;;;;;5062736;28;20043;-76
2021/06/28 11:32:39;;;;;;;4.40;2.28;;;;;;;;;;5068015;28;20071;-76
2021/06/28 11:35:36;;;;;;;2.80;2.30;;;;;;;;;;5048638;28;20470;-76
2021/06/28 11:38:25;;;;;;;5.65;2.28;;;;;;;;;;5063860;28;20090;-76
2021/06/28 11:41:10;;;;;;;3.70;2.50;;;;;;;;;;5060526;28;20051;-78
2021/06/28 11:43:55;;;;;;;4.15;2.53;;;;;;;;;;5065712;28;20063;-75
2021/06/28 11:46:40;;;;;;;3.63;2.53;;;;;;;;;;5059653;28;20043;-77
2021/06/28 11:49:25;;;;;;;4.05;2.45;;;;;;;;;;5064194;28;20048;-76
2021/06/28 11:52:16;;;;;;;4.20;2.60;;;;;;;;;;5049903;28;20089;-76
2021/06/28 11:55:07;;;;;;;3.70;2.53;;;;;;;;;;5050438;28;20747;-76
2021/06/28 11:57:53;;;;;;;4.60;2.55;;;;;;;;;;5049693;28;20043;-75
2021/06/28 12:00:37;;;;;;;4.30;2.30;;;;;;;;;;5057056;28;20085;-76
2021/06/28 12:03:24;;;;;;;4.22;2.47;;;;;;;;;;5061286;28;20447;-76
2021/06/28 12:06:09;;;;;;;4.20;2.70;;;;;;;;;;5064770;28;20035;-76
2021/06/28 12:09:13;;;;;;;3.38;2.47;;;;;;;;;;5063457;28;20043;-76
2021/06/28 12:11:58;;;;;;;3.70;2.30;;;;;;;;;;5064139;28;20643;-76
2021/06/28 12:14:52;;;;;;;4.32;2.60;;;;;;;;;;5055255;28;20099;-76
2021/06/28 12:17:37;;;;;;;3.40;2.47;;;;;;;;;;5063483;28;20044;-77
2021/06/28 12:20:22;;;;;;;3.15;2.35;;;;;;;;;;5063477;28;20047;-76
2021/06/28 12:23:10;;;;;;;4.20;2.65;;;;;;;;;;5048034;28;20455;-76
2021/06/28 12:25:55;;;;;;;5.13;2.72;;;;;;;;;;5058666;28;20131;-77
2021/06/28 12:28:40;;;;;;;4.20;2.80;;;;;;;;;;5033525;28;20686;-76
2021/06/28 12:31:24;;;;;;;3.65;2.35;;;;;;;;;;5059633;28;20085;-76
2021/06/28 12:34:09;;;;;;;4.05;2.50;;;;;;;;;;5063286;28;20048;-77
2021/06/28 12:36:54;;;;;;;5.10;2.60;;;;;;;;;;5062127;28;20039;-79
2021/06/28 12:39:38;;;;;;;4.40;2.40;;;;;;;;;;5055219;28;20051;-76
2021/06/28 12:42:23;;;;;;;4.35;2.50;;;;;;;;;;5057539;28;20035;-78
2021/06/28 12:45:09;;;;;;;3.83;2.60;;;;;;;;;;5044895;28;20121;-76
2021/06/28 12:47:54;;;;;;;4.50;2.80;;;;;;;;;;5043911;28;20038;-76
2021/06/28 12:50:39;;;;;;;4.40;2.50;;;;;;;;;;5039651;28;20532;-77
2021/06/28 12:53:24;;;;;;;3.95;2.47;;;;;;;;;;5055411;28;20102;-76
2021/06/28 12:56:11;;;;;;;4.53;2.50;;;;;;;;;;5055551;28;20090;-76
2021/06/28 12:59:00;;;;;;;4.80;2.35;;;;;;;;;;5040066;28;20074;-76
2021/06/28 13:01:46;;;;;;;4.50;2.60;;;;;;;;;;5049684;28;20040;-76
2021/06/28 13:04:31;;;;;;;5.05;2.60;;;;;;;;;;5061254;28;20043;-75
2021/06/28 13:07:25;;;;;;;3.78;2.40;;;;;;;;;;5058377;28;20047;-76
2021/06/28 13:10:10;;;;;;;3.30;2.47;;;;;;;;;;5066530;28;20101;-76
2021/06/28 13:12:54;;;;;;;4.97;2.75;;;;;;;;;;5050110;28;20055;-75
2021/06/28 13:15:39;;;;;;;7.25;2.70;;;;;;;;;;5055907;28;20095;-75
2021/06/28 13:18:23;;;;;;;3.75;2.38;;;;;;;;;;5063501;28;20457;-76
2021/06/28 13:21:15;;;;;;;3.20;2.50;;;;;;;;;;5061523;28;20044;-79
2021/06/28 13:24:00;;;;;;;3.55;2.35;;;;;;;;;;5063382;28;20568;-79
2021/06/28 13:26:45;;;;;;;4.20;2.70;;;;;;;;;;5049067;28;20579;-76
2021/06/28 13:29:31;;;;;;;3.15;2.45;;;;;;;;;;5056085;28;20082;-75
2021/06/28 13:32:18;;;;;;;3.25;2.33;;;;;;;;;;5054554;28;20075;-74
2021/06/28 13:35:03;;;;;;;4.00;2.60;;;;;;;;;;5057852;28;20182;-74
2021/06/28 13:37:48;;;;;;;3.78;2.30;;;;;;;;;;5053710;28;20537;-75
2021/06/28 13:40:33;;;;;;;4.03;2.67;;;;;;;;;;5054804;28;20043;-76
2021/06/28 13:43:18;;;;;;;3.17;2.30;;;;;;;;;;5055581;28;20055;-75
2021/06/28 13:46:02;;;;;;;3.33;2.58;;;;;;;;;;5053113;28;20039;-75
2021/06/28 13:48:47;;;;;;;3.35;2.60;;;;;;;;;;5055451;28;20071;-75
2021/06/28 13:51:32;;;;;;;6.70;2.50;;;;;;;;;;5052531;28;20047;-75
2021/06/28 13:54:17;;;;;;;5.15;2.78;;;;;;;;;;5040649;28;20117;-78
2021/06/28 13:57:01;;;;;;;4.57;2.60;;;;;;;;;;5069017;28;20043;-77
2021/06/28 13:59:46;;;;;;;3.75;2.40;;;;;;;;;;5071192;28;20035;-78
2021/06/28 14:02:30;;;;;;;4.25;2.58;;;;;;;;;;5044894;28;20176;-78
2021/06/28 14:05:15;;;;;;;4.25;2.53;;;;;;;;;;5054293;28;20039;-76
2021/06/28 14:08:00;;;;;;;3.40;2.50;;;;;;;;;;5038120;28;20150;-78
2021/06/28 14:10:45;;;;;;;3.60;2.47;;;;;;;;;;5052753;28;20101;-78
2021/06/28 14:13:30;;;;;;;5.20;2.47;;;;;;;;;;5049771;28;20323;-77
2021/06/28 14:16:14;;;;;;;3.92;2.50;;;;;;;;;;5059272;28;20032;-78
2021/06/28 14:18:59;;;;;;;3.60;2.60;;;;;;;;;;5044983;28;20106;-77
2021/06/28 14:21:44;;;;;;;4.32;2.65;;;;;;;;;;5054015;28;20929;-78
2021/06/28 14:24:28;;;;;;;4.30;2.30;;;;;;;;;;5060424;28;20657;-78
2021/06/28 14:27:13;;;;;;;4.25;2.72;;;;;;;;;;5060800;28;20128;-78
2021/06/28 14:30:02;;;;;;;3.42;2.30;;;;;;;;;;5059745;28;20044;-78
2021/06/28 14:32:47;;;;;;;5.10;2.72;;;;;;;;;;5057477;28;20419;-79
2021/06/28 14:35:33;;;;;;;4.53;2.50;;;;;;;;;;5044916;28;20044;-78
2021/06/28 14:38:18;;;;;;;4.35;2.33;;;;;;;;;;5057121;28;20036;-78
2021/06/28 14:41:03;;;;;;;5.10;2.50;;;;;;;;;;5063571;28;20170;-77
2021/06/28 14:43:47;;;;;;;4.82;2.50;;;;;;;;;;5051515;28;20043;-78
2021/06/28 14:46:32;;;;;;;4.63;2.53;;;;;;;;;;5064334;28;20090;-77
2021/06/28 14:49:16;;;;;;;3.85;2.30;;;;;;;;;;5051443;28;20071;-77
2021/06/28 14:52:01;;;;;;;5.00;2.38;;;;;;;;;;5065655;28;20458;-79
2021/06/28 14:54:46;;;;;;;4.05;2.47;;;;;;;;;;5066267;28;20051;-78
2021/06/28 14:57:31;;;;;;;4.20;2.50;;;;;;;;;;5047115;28;20051;-77
2021/06/28 15:00:15;;;;;;;3.67;2.42;;;;;;;;;;5064906;28;20133;-77
2021/06/28 15:03:00;;;;;;;3.17;2.22;;;;;;;;;;5065234;28;20673;-77
2021/06/28 15:05:45;;;;;;;4.00;2.40;;;;;;;;;;5061661;28;20063;-77
2021/06/28 15:08:29;;;;;;;2.75;2.40;;;;;;;;;;5062951;28;20067;-77
2021/06/28 15:11:14;;;;;;;5.05;2.22;;;;;;;;;;5056625;28;20036;-77
2021/06/28 15:13:58;;;;;;;3.65;2.38;;;;;;;;;;5049621;28;20109;-77
2021/06/28 15:16:42;;;;;;;3.00;2.22;;;;;;;;;;5047418;28;20043;-78
2021/06/28 15:19:27;;;;;;;3.65;2.45;;;;;;;;;;5065321;28;20055;-77
2021/06/28 15:22:13;;;;;;;3.30;2.45;;;;;;;;;;5064586;28;20039;-77
2021/06/28 15:24:57;;;;;;;4.13;2.60;;;;;;;;;;5062703;28;20044;-77
2021/06/28 15:27:45;;;;;;;2.72;2.17;;;;;;;;;;5047958;28;20043;-77
2021/06/28 15:30:31;;;;;;;3.75;2.33;;;;;;;;;;5052673;28;20093;-77
2021/06/28 15:33:15;;;;;;;3.13;2.60;;;;;;;;;;5064203;28;20186;-77
2021/06/28 15:36:00;;;;;;;3.83;2.38;;;;;;;;;;5064446;28;20043;-77
2021/06/28 15:38:44;;;;;;;4.25;2.45;;;;;;;;;;5051335;28;20043;-77
2021/06/28 15:41:31;;;;;;;4.50;2.28;;;;;;;;;;5065299;28;20091;-77
2021/06/28 15:44:16;;;;;;;3.17;2.35;;;;;;;;;;5063101;28;20094;-78
2021/06/28 15:47:01;;;;;;;4.35;2.15;;;;;;;;;;5065725;28;20043;-78
2021/06/28 15:49:45;;;;;;;3.72;2.22;;;;;;;;;;5065209;28;20036;-77
2021/06/28 15:52:30;;;;;;;3.58;2.40;;;;;;;;;;5062588;28;20090;-76
2021/06/28 15:55:15;;;;;;;2.90;2.13;;;;;;;;;;5045356;28;20056;-77
2021/06/28 15:58:00;;;;;;;3.70;2.10;;;;;;;;;;5054769;28;20411;-76
2021/06/28 16:00:44;;;;;;;2.90;2.20;;;;;;;;;;5064269;28;20613;-78
2021/06/28 16:03:31;;;;;;;2.88;2.20;;;;;;;;;;5064597;28;20113;-77
2021/06/28 16:06:15;;;;;;;5.45;2.38;;;;;;;;;;5066756;28;20043;-78
2021/06/28 16:09:00;;;;;;;3.85;2.20;;;;;;;;;;5050631;28;20040;-77
2021/06/28 16:11:45;;;;;;;2.53;2.00;;;;;;;;;;5064135;28;20046;-77
2021/06/28 16:14:29;;;;;;;5.75;2.55;;;;;;;;;;5049901;28;20048;-77
2021/06/28 16:17:14;;;;;;;4.07;2.40;;;;;;;;;;5059462;28;20040;-77
2021/06/28 16:19:59;;;;;;;3.45;2.20;;;;;;;;;;5048736;28;20048;-77
2021/06/28 16:22:44;;;;;;;3.22;2.50;;;;;;;;;;5048966;28;20036;-76
2021/06/28 16:25:28;;;;;;;3.17;2.38;;;;;;;;;;5049571;28;20060;-77
2021/06/28 16:28:12;;;;;;;3.15;2.33;;;;;;;;;;5062037;28;20104;-77
2021/06/28 16:30:57;;;;;;;4.78;2.50;;;;;;;;;;5063169;28;20079;-77
2021/06/28 16:33:42;;;;;;;3.45;2.38;;;;;;;;;;5063987;28;20105;-76